createdAt,value
2023-01-02T00:01:04.947Z,88.49
2023-01-02T00:03:33.014Z,88.55
2023-01-02T00:06:03.778Z,88.83
2023-01-02T00:08:31.803Z,88.79
2023-01-02T00:11:00.174Z,88.78
2023-01-02T00:13:28.388Z,89.02
2023-01-02T00:15:57.619Z,89.34
2023-01-02T00:18:25.492Z,88.76
2023-01-02T00:20:53.351Z,88.87
2023-01-02T00:23:21.201Z,87.69
2023-01-02T00:25:49.062Z,87.37
2023-01-02T00:28:17.223Z,87.75
2023-01-02T00:30:45.205Z,87.16
2023-01-02T00:33:14.433Z,87.32
2023-01-02T00:35:42.574Z,86.99
2023-01-02T00:38:10.394Z,87.14
2023-01-02T00:40:38.558Z,86.49
2023-01-02T00:43:06.426Z,86.86
2023-01-02T00:45:34.295Z,87.42
2023-01-02T00:48:02.087Z,86.70
2023-01-02T00:50:31.249Z,87.00
2023-01-02T00:52:59.527Z,86.99
2023-01-02T00:55:27.331Z,85.61
2023-01-02T00:57:55.211Z,85.86
2023-01-02T01:00:24.321Z,84.88
2023-01-02T01:02:56.473Z,85.38
2023-01-02T01:05:24.624Z,85.75
2023-01-02T01:07:54.833Z,85.64
2023-01-02T01:10:23.164Z,85.67
2023-01-02T01:12:52.152Z,86.90
2023-01-02T01:15:20.150Z,87.03
2023-01-02T01:17:48.149Z,85.85
2023-01-02T01:20:16.009Z,85.85
2023-01-02T01:22:44.025Z,85.61
2023-01-02T01:25:13.360Z,86.17
2023-01-02T01:27:41.294Z,85.88
2023-01-02T01:30:09.982Z,86.71
2023-01-02T01:32:37.846Z,86.90
2023-01-02T01:35:08.018Z,86.78
2023-01-02T01:37:35.935Z,86.51
2023-01-02T01:40:03.774Z,85.25
2023-01-02T01:42:34.673Z,85.69
2023-01-02T01:45:02.650Z,85.38
2023-01-02T01:47:38.791Z,85.03
2023-01-02T01:50:10.297Z,84.85
2023-01-02T01:52:42.891Z,83.97
2023-01-02T01:55:15.461Z,83.58
2023-01-02T01:57:50.410Z,83.80
2023-01-02T02:00:18.890Z,84.34
2023-01-02T02:02:51.642Z,84.23
2023-01-02T02:05:24.963Z,84.59
2023-01-02T02:08:03.053Z,83.72
2023-01-02T02:10:31.463Z,84.14
2023-01-02T02:13:00.809Z,83.71
2023-01-02T02:15:37.485Z,84.27
2023-01-02T02:18:17.753Z,83.94
2023-01-02T02:20:52.650Z,83.54
2023-01-02T02:23:46.925Z,83.20
2023-01-02T02:26:54.549Z,83.08
2023-01-02T02:30:04.370Z,83.42
2023-01-02T02:33:01.745Z,83.85
2023-01-02T02:35:38.768Z,83.88
2023-01-02T02:38:12.993Z,83.55
2023-01-02T02:40:54.593Z,83.12
2023-01-02T02:43:30.376Z,83.30
2023-01-02T02:46:06.389Z,83.85
2023-01-02T02:48:46.846Z,83.63
2023-01-02T02:51:19.749Z,83.59
2023-01-02T02:53:55.219Z,83.80
2023-01-02T02:56:25.729Z,83.52
2023-01-02T02:58:56.305Z,83.25
2023-01-02T03:01:30.519Z,83.37
2023-01-02T03:04:00.441Z,83.64
2023-01-02T03:06:46.480Z,83.41
2023-01-02T03:09:20.138Z,83.14
2023-01-02T03:11:56.072Z,83.23
2023-01-02T03:14:34.537Z,83.23
2023-01-02T03:17:07.386Z,83.24
2023-01-02T03:19:42.907Z,83.50
2023-01-02T03:22:16.303Z,83.65
2023-01-02T03:24:46.323Z,83.66
2023-01-02T03:27:23.096Z,83.63
2023-01-02T03:29:55.283Z,83.47
2023-01-02T03:32:28.901Z,83.68
2023-01-02T03:35:02.302Z,83.14
2023-01-02T03:37:34.014Z,82.82
2023-01-02T03:40:08.079Z,83.22
2023-01-02T03:42:41.519Z,83.28
2023-01-02T03:45:17.129Z,83.21
2023-01-02T03:47:53.562Z,83.30
2023-01-02T03:50:26.318Z,83.28
2023-01-02T03:52:54.681Z,83.32
2023-01-02T03:55:24.765Z,83.26
2023-01-02T03:57:59.042Z,83.09
2023-01-02T04:00:34.398Z,83.03
2023-01-02T04:03:07.415Z,83.54
2023-01-02T04:05:41.876Z,83.79
2023-01-02T04:08:14.651Z,83.32
2023-01-02T04:10:45.151Z,83.36
2023-01-02T04:13:17.516Z,83.26
2023-01-02T04:15:48.269Z,83.01
2023-01-02T04:18:21.736Z,82.49
2023-01-02T04:20:54.681Z,82.26
2023-01-02T04:23:26.434Z,82.08
2023-01-02T04:26:00.313Z,81.88
2023-01-02T04:28:31.064Z,81.56
2023-01-02T04:31:06.754Z,82.04
2023-01-02T04:33:39.095Z,82.00
2023-01-02T04:36:13.457Z,81.82
2023-01-02T04:38:42.627Z,81.89
2023-01-02T04:41:13.534Z,81.90
2023-01-02T04:43:41.649Z,81.97
2023-01-02T04:46:09.487Z,81.98
2023-01-02T04:48:37.968Z,82.16
2023-01-02T04:51:06.258Z,81.84
2023-01-02T04:53:35.491Z,81.99
2023-01-02T04:56:03.437Z,81.76
2023-01-02T04:58:31.437Z,80.96
2023-01-02T05:01:00.039Z,81.13
2023-01-02T05:03:28.017Z,81.68
2023-01-02T05:06:00.797Z,81.33
2023-01-02T05:08:29.858Z,80.70
2023-01-02T05:11:06.371Z,81.46
2023-01-02T05:13:34.348Z,81.56
2023-01-02T05:16:03.900Z,81.45
2023-01-02T05:18:32.777Z,81.38
2023-01-02T05:21:02.696Z,81.04
2023-01-02T05:23:57.047Z,81.42
2023-01-02T05:26:26.466Z,80.83
2023-01-02T05:28:54.975Z,80.78
2023-01-02T05:31:23.329Z,81.66
2023-01-02T05:33:53.492Z,82.38
2023-01-02T05:36:22.451Z,82.61
2023-01-02T05:38:50.499Z,82.72
2023-01-02T05:41:18.435Z,82.10
2023-01-02T05:43:47.751Z,82.83
2023-01-02T05:46:16.921Z,83.09
2023-01-02T05:48:45.936Z,83.29
2023-01-02T05:51:15.879Z,82.75
2023-01-02T05:53:44.301Z,82.87
2023-01-02T05:56:13.816Z,82.76
2023-01-02T05:58:44.713Z,82.64
2023-01-02T06:01:15.404Z,82.47
2023-01-02T06:03:46.274Z,82.25
2023-01-02T06:06:14.490Z,82.04
2023-01-02T06:08:42.476Z,81.62
2023-01-02T06:11:10.891Z,80.68
2023-01-02T06:13:39.595Z,81.16
2023-01-02T06:16:09.556Z,80.88
2023-01-02T06:18:40.385Z,81.24
2023-01-02T06:21:09.915Z,80.67
2023-01-02T06:23:38.337Z,80.61
2023-01-02T06:26:07.868Z,80.72
2023-01-02T06:28:35.762Z,80.94
2023-01-02T06:31:05.205Z,80.93
2023-01-02T06:33:33.573Z,80.71
2023-01-02T06:36:04.440Z,80.66
2023-01-02T06:38:32.567Z,80.69
2023-01-02T06:41:02.478Z,80.33
2023-01-02T06:43:31.203Z,80.16
2023-01-02T06:45:59.897Z,79.74
2023-01-02T06:48:28.393Z,79.88
2023-01-02T06:50:56.354Z,80.45
2023-01-02T06:53:25.567Z,80.61
2023-01-02T06:55:54.097Z,80.62
2023-01-02T06:58:22.748Z,80.52
2023-01-02T07:00:51.168Z,80.30
2023-01-02T07:03:19.387Z,80.03
2023-01-02T07:05:47.551Z,79.69
2023-01-02T07:08:16.452Z,79.89
2023-01-02T07:10:52.536Z,79.69
2023-01-02T07:13:21.080Z,79.69
2023-01-02T07:15:48.891Z,79.42
2023-01-02T07:18:16.702Z,79.16
2023-01-02T07:20:44.911Z,79.64
2023-01-02T07:23:12.790Z,79.42
2023-01-02T07:25:44.348Z,78.99
2023-01-02T07:28:13.981Z,79.22
2023-01-02T07:30:41.854Z,79.29
2023-01-02T07:33:09.732Z,79.73
2023-01-02T07:35:38.457Z,79.49
2023-01-02T07:38:06.274Z,79.45
2023-01-02T07:40:34.662Z,80.18
2023-01-02T07:43:02.487Z,80.54
2023-01-02T07:45:33.071Z,80.87
2023-01-02T07:48:01.128Z,80.39
2023-01-02T07:50:29.150Z,80.93
2023-01-02T07:52:57.012Z,80.62
2023-01-02T07:55:24.822Z,80.70
2023-01-02T07:57:52.874Z,80.92
2023-01-02T08:00:21.639Z,80.17
2023-01-02T08:02:55.129Z,80.38
2023-01-02T08:05:23.857Z,80.36
2023-01-02T08:07:51.819Z,80.96
2023-01-02T08:10:19.659Z,81.04
2023-01-02T08:12:47.479Z,80.96
2023-01-02T08:15:15.515Z,81.63
2023-01-02T08:17:43.318Z,81.57
2023-01-02T08:20:12.898Z,80.64
2023-01-02T08:22:40.941Z,80.46
2023-01-02T08:25:10.687Z,80.61
2023-01-02T08:27:39.171Z,81.11
2023-01-02T08:30:08.033Z,80.96
2023-01-02T08:32:37.434Z,81.15
2023-01-02T08:35:06.316Z,81.39
2023-01-02T08:37:35.835Z,81.11
2023-01-02T08:40:06.574Z,80.67
2023-01-02T08:42:34.416Z,81.54
2023-01-02T08:45:02.228Z,81.33
2023-01-02T08:47:30.146Z,81.13
2023-01-02T08:49:57.977Z,80.76
2023-01-02T08:52:25.876Z,80.00
2023-01-02T08:54:55.214Z,80.02
2023-01-02T08:57:23.148Z,80.07
2023-01-02T08:59:51.094Z,80.16
2023-01-02T09:02:19.510Z,80.32
2023-01-02T09:04:47.442Z,80.05
2023-01-02T09:07:15.430Z,80.93
2023-01-02T09:09:43.333Z,80.54
2023-01-02T09:12:12.467Z,80.64
2023-01-02T09:14:40.398Z,80.55
2023-01-02T09:17:08.545Z,80.24
2023-01-02T09:19:37.034Z,79.90
2023-01-02T09:22:05.746Z,80.06
2023-01-02T09:24:33.677Z,79.64
2023-01-02T09:27:01.527Z,80.02
2023-01-02T09:29:30.758Z,80.46
2023-01-02T09:31:58.627Z,79.92
2023-01-02T09:34:27.863Z,80.17
2023-01-02T09:36:55.757Z,79.51
2023-01-02T09:39:28.541Z,80.23
2023-01-02T09:42:01.773Z,80.37
2023-01-02T09:44:38.088Z,79.92
2023-01-02T09:47:09.222Z,79.97
2023-01-02T09:49:44.846Z,80.00
2023-01-02T09:52:16.913Z,79.91
2023-01-02T09:54:44.868Z,80.36
2023-01-02T09:57:28.368Z,80.14
2023-01-02T10:00:03.711Z,80.75
2023-01-02T10:02:46.119Z,81.52
2023-01-02T10:05:28.681Z,80.81
2023-01-02T10:08:04.687Z,81.59
2023-01-02T10:10:36.343Z,81.52
2023-01-02T10:13:14.507Z,81.40
2023-01-02T10:15:48.258Z,82.36
2023-01-02T10:18:23.366Z,82.16
2023-01-02T10:20:56.461Z,82.07
2023-01-02T10:23:29.614Z,82.43
2023-01-02T10:26:02.538Z,82.38
2023-01-02T10:28:40.847Z,82.13
2023-01-02T10:31:16.575Z,82.11
2023-01-02T10:33:48.637Z,82.17
2023-01-02T10:36:26.533Z,81.46
2023-01-02T10:38:59.199Z,81.92
2023-01-02T10:41:27.975Z,81.92
2023-01-02T10:43:59.217Z,82.49
2023-01-02T10:46:34.632Z,83.13
2023-01-02T10:49:03.656Z,83.22
2023-01-02T10:51:31.977Z,83.71
2023-01-02T10:54:01.823Z,84.61
2023-01-02T10:56:32.385Z,84.68
2023-01-02T10:59:01.267Z,85.41
2023-01-02T11:01:31.325Z,86.25
2023-01-02T11:04:13.510Z,87.09
2023-01-02T11:06:56.729Z,87.47
2023-01-02T11:09:27.024Z,87.48
2023-01-02T11:11:56.479Z,87.59
2023-01-02T11:14:28.894Z,87.43
2023-01-02T11:17:05.401Z,87.47
2023-01-02T11:19:41.004Z,87.58
2023-01-02T11:22:09.529Z,87.29
2023-01-02T11:24:53.010Z,87.38
2023-01-02T11:27:31.704Z,87.22
2023-01-02T11:30:00.567Z,87.03
2023-01-02T11:32:38.586Z,87.21
2023-01-02T11:35:27.632Z,87.17
2023-01-02T11:37:56.148Z,87.05
2023-01-02T11:40:27.912Z,86.84
2023-01-02T11:43:16.473Z,86.91
2023-01-02T11:45:45.036Z,86.87
2023-01-02T11:48:21.654Z,87.22
2023-01-02T11:50:50.899Z,87.20
2023-01-02T11:53:22.378Z,87.11
2023-01-02T11:55:55.487Z,87.11
2023-01-02T11:58:29.141Z,87.47
2023-01-02T12:01:03.596Z,87.97
2023-01-02T12:03:34.807Z,88.40
2023-01-02T12:06:16.262Z,88.41
2023-01-02T12:08:59.474Z,89.06
2023-01-02T12:11:40.830Z,89.11
2023-01-02T12:14:14.892Z,89.03
2023-01-02T12:16:51.911Z,89.12
2023-01-02T12:20:10.625Z,89.33
2023-01-02T12:22:56.134Z,89.20
2023-01-02T12:25:42.933Z,89.03
2023-01-02T12:28:26.946Z,89.06
2023-01-02T12:31:10.054Z,88.84
2023-01-02T12:33:46.672Z,88.98
2023-01-02T12:36:35.372Z,89.39
2023-01-02T12:39:43.239Z,89.64
2023-01-02T12:42:21.677Z,89.61
2023-01-02T12:44:53.664Z,89.66
2023-01-02T12:47:42.970Z,89.79
2023-01-02T12:50:31.461Z,89.70
2023-01-02T12:53:15.331Z,89.68
2023-01-02T12:55:53.713Z,90.51
2023-01-02T12:58:36.396Z,90.11
2023-01-02T13:01:16.647Z,90.36
2023-01-02T13:04:00.032Z,90.37
2023-01-02T13:06:45.205Z,90.43
2023-01-02T13:09:23.186Z,90.73
2023-01-02T13:12:02.038Z,90.73
2023-01-02T13:14:36.729Z,90.71
2023-01-02T13:17:27.156Z,90.56
2023-01-02T13:20:00.855Z,90.16
2023-01-02T13:22:37.143Z,90.70
2023-01-02T13:25:06.245Z,90.99
2023-01-02T13:27:35.598Z,90.42
2023-01-02T13:30:03.809Z,90.75
2023-01-02T13:32:32.922Z,90.59
2023-01-02T13:35:03.571Z,90.43
2023-01-02T13:37:32.173Z,90.62
2023-01-02T13:40:03.234Z,90.53
2023-01-02T13:42:52.218Z,90.94
2023-01-02T13:45:25.207Z,90.64
2023-01-02T13:47:56.244Z,90.93
2023-01-02T13:50:27.880Z,90.59
2023-01-02T13:53:17.847Z,90.19
2023-01-02T13:56:05.782Z,90.62
2023-01-02T13:58:48.777Z,90.96
2023-01-02T14:01:52.395Z,90.24
2023-01-02T14:04:48.935Z,90.44
2023-01-02T14:07:55.013Z,90.60
2023-01-02T14:10:49.847Z,90.63
2023-01-02T14:13:30.710Z,90.79
2023-01-02T14:16:48.918Z,90.92
2023-01-02T14:19:19.948Z,90.72
2023-01-02T14:21:53.756Z,90.50
2023-01-02T14:24:30.539Z,90.67
2023-01-02T14:27:03.547Z,90.42
2023-01-02T14:29:32.786Z,90.56
2023-01-02T14:32:05.661Z,90.70
2023-01-02T14:34:35.038Z,90.75
2023-01-02T14:37:04.419Z,90.86
2023-01-02T14:39:36.816Z,90.68
2023-01-02T14:42:39.945Z,91.00
2023-01-02T14:45:13.850Z,90.73
2023-01-02T14:47:46.094Z,90.80
2023-01-02T14:50:16.756Z,90.97
2023-01-02T14:52:52.095Z,90.99
2023-01-02T14:55:23.515Z,90.75
2023-01-02T14:57:54.237Z,90.70
2023-01-02T15:00:27.932Z,90.52
2023-01-02T15:03:00.790Z,91.02
2023-01-02T15:05:36.190Z,91.04
2023-01-02T15:08:11.832Z,90.91
2023-01-02T15:10:56.336Z,90.96
2023-01-02T15:13:26.954Z,91.29
2023-01-02T15:16:00.922Z,91.22
2023-01-02T15:18:32.633Z,91.17
2023-01-02T15:21:08.190Z,91.44
2023-01-02T15:23:42.988Z,91.08
2023-01-02T15:26:31.837Z,91.56
2023-01-02T15:29:03.617Z,91.77
2023-01-02T15:31:32.286Z,91.81
2023-01-02T15:34:01.890Z,91.79
2023-01-02T15:36:36.152Z,92.29
2023-01-02T15:39:12.291Z,92.24
2023-01-02T15:41:46.046Z,92.43
2023-01-02T15:44:33.005Z,92.95
2023-01-02T15:47:01.430Z,92.65
2023-01-02T15:49:29.527Z,92.71
2023-01-02T15:51:58.896Z,93.15
2023-01-02T15:54:29.113Z,93.15
2023-01-02T15:57:06.174Z,93.10
2023-01-02T15:59:37.060Z,92.86
2023-01-02T16:02:05.133Z,93.94
2023-01-02T16:04:35.088Z,93.60
2023-01-02T16:07:15.756Z,93.93
2023-01-02T16:09:54.878Z,94.05
2023-01-02T16:12:24.306Z,93.56
2023-01-02T16:14:55.650Z,93.77
2023-01-02T16:17:27.189Z,93.90
2023-01-02T16:19:59.694Z,93.61
2023-01-02T16:22:30.966Z,93.74
2023-01-02T16:25:05.634Z,94.12
2023-01-02T16:27:37.721Z,94.12
2023-01-02T16:30:16.836Z,94.50
2023-01-02T16:32:48.919Z,94.34
2023-01-02T16:35:22.245Z,94.66
2023-01-02T16:37:53.567Z,94.65
2023-01-02T16:41:01.612Z,94.49
2023-01-02T16:43:30.323Z,94.88
2023-01-02T16:45:59.471Z,95.35
2023-01-02T16:48:30.087Z,94.68
2023-01-02T16:50:59.701Z,95.24
2023-01-02T16:53:29.915Z,95.41
2023-01-02T16:56:01.031Z,95.21
2023-01-02T16:58:29.864Z,94.65
2023-01-02T17:00:58.062Z,94.79
2023-01-02T17:03:28.327Z,94.83
2023-01-02T17:06:01.354Z,94.82
2023-01-02T17:08:31.616Z,94.51
2023-01-02T17:11:01.610Z,94.83
2023-01-02T17:13:30.651Z,95.02
2023-01-02T17:15:59.312Z,95.31
2023-01-02T17:18:27.510Z,95.33
2023-01-02T17:20:55.369Z,94.98
2023-01-02T17:23:23.217Z,95.34
2023-01-02T17:25:51.160Z,95.47
2023-01-02T17:28:20.652Z,95.72
2023-01-02T17:30:50.146Z,95.17
2023-01-02T17:33:18.794Z,95.82
2023-01-02T17:35:47.535Z,96.33
2023-01-02T17:38:15.450Z,96.32
2023-01-02T17:40:43.579Z,95.47
2023-01-02T17:43:11.540Z,95.32
2023-01-02T17:45:42.264Z,95.86
2023-01-02T17:48:12.927Z,95.54
2023-01-02T17:50:43.087Z,96.27
2023-01-02T17:53:10.946Z,96.11
2023-01-02T17:55:38.767Z,95.85
2023-01-02T17:58:06.619Z,95.67
2023-01-02T18:00:34.586Z,95.89
2023-01-02T18:03:03.805Z,95.80
2023-01-02T18:05:32.745Z,95.01
2023-01-02T18:08:00.542Z,95.76
2023-01-02T18:10:32.880Z,95.20
2023-01-02T18:13:01.421Z,95.47
2023-01-02T18:15:29.619Z,95.44
2023-01-02T18:18:00.441Z,95.27
2023-01-02T18:20:29.710Z,95.32
2023-01-02T18:22:57.977Z,95.50
2023-01-02T18:25:28.068Z,96.43
2023-01-02T18:27:59.155Z,96.28
2023-01-02T18:30:27.728Z,96.68
2023-01-02T18:33:02.538Z,95.96
2023-01-02T18:38:30.556Z,95.29
2023-01-02T18:40:58.532Z,94.58
2023-01-02T18:43:29.469Z,94.10
2023-01-02T18:46:00.025Z,94.57
2023-01-02T18:48:28.541Z,94.86
2023-01-02T18:51:03.212Z,94.42
2023-01-02T18:53:35.720Z,94.40
2023-01-02T18:56:12.322Z,94.36
2023-01-02T18:58:43.286Z,93.68
2023-01-02T19:01:24.702Z,93.75
2023-01-02T19:03:56.741Z,94.50
2023-01-02T19:06:27.962Z,93.61
2023-01-02T19:09:02.880Z,93.20
2023-01-02T19:11:52.139Z,93.24
2023-01-02T19:14:24.163Z,93.13
2023-01-02T19:16:58.607Z,93.12
2023-01-02T19:19:27.002Z,93.95
2023-01-02T19:21:56.757Z,94.66
2023-01-02T19:24:28.858Z,94.33
2023-01-02T19:26:58.920Z,93.97
2023-01-02T19:29:30.815Z,94.17
2023-01-02T19:32:03.465Z,92.44
2023-01-02T19:34:43.297Z,92.29
2023-01-02T19:37:39.097Z,93.61
2023-01-02T19:40:18.566Z,93.59
2023-01-02T19:42:47.925Z,92.82
2023-01-02T19:45:17.577Z,92.26
2023-01-02T19:47:46.641Z,92.02
2023-01-02T19:50:16.719Z,91.79
2023-01-02T19:52:46.128Z,91.90
2023-01-02T19:55:14.348Z,92.22
2023-01-02T19:57:42.223Z,92.86
2023-01-02T20:00:13.121Z,92.92
2023-01-02T20:02:41.715Z,93.05
2023-01-02T20:05:11.936Z,92.72
2023-01-02T20:07:43.058Z,93.66
2023-01-02T20:10:12.682Z,93.85
2023-01-02T20:12:41.502Z,93.67
2023-01-02T20:15:12.187Z,93.25
2023-01-02T20:17:40.624Z,92.61
2023-01-02T20:20:11.165Z,93.64
2023-01-02T20:22:39.073Z,92.84
2023-01-02T20:25:07.942Z,93.23
2023-01-02T20:27:37.440Z,92.32
2023-01-02T20:30:07.045Z,92.87
2023-01-02T20:32:35.354Z,92.38
2023-01-02T20:35:03.599Z,92.56
2023-01-02T20:37:31.431Z,92.86
2023-01-02T20:39:59.485Z,91.86
2023-01-02T20:42:27.397Z,92.54
2023-01-02T20:44:56.778Z,92.54
2023-01-02T20:47:24.562Z,91.65
2023-01-02T20:49:52.481Z,92.10
2023-01-02T20:52:21.326Z,91.83
2023-01-02T20:57:18.121Z,90.47
2023-01-02T20:59:45.998Z,91.03
2023-01-02T21:02:15.368Z,91.74
2023-01-02T21:04:43.431Z,90.53
2023-01-02T21:07:11.376Z,91.22
2023-01-02T21:09:39.280Z,90.86
2023-01-02T21:12:27.890Z,90.77
2023-01-02T21:14:55.938Z,89.83
2023-01-02T21:17:25.201Z,90.56
2023-01-02T21:19:53.167Z,90.29
2023-01-02T21:22:21.299Z,90.07
2023-01-02T21:24:49.150Z,90.44
2023-01-02T21:27:17.164Z,90.40
2023-01-02T21:29:45.963Z,89.83
2023-01-02T21:32:14.154Z,90.40
2023-01-02T21:34:43.307Z,90.55
2023-01-02T21:37:11.121Z,90.99
2023-01-02T21:39:38.914Z,90.08
2023-01-02T21:42:19.006Z,89.47
2023-01-02T21:44:48.346Z,90.23
2023-01-02T21:47:17.008Z,90.89
2023-01-02T21:49:46.378Z,91.25
2023-01-02T21:52:14.711Z,91.21
2023-01-02T21:54:42.708Z,91.08
2023-01-02T21:57:10.784Z,91.50
2023-01-02T21:59:38.888Z,92.09
2023-01-02T22:02:06.992Z,91.91
2023-01-02T22:04:35.985Z,92.46
2023-01-02T22:09:53.273Z,93.46
2023-01-02T22:12:21.128Z,93.68
2023-01-02T22:14:49.097Z,93.97
2023-01-02T22:17:16.966Z,93.92
2023-01-02T22:19:44.911Z,94.08
2023-01-02T22:22:14.513Z,94.95
2023-01-02T22:24:44.763Z,95.56
2023-01-02T22:27:14.901Z,95.51
2023-01-02T22:30:18.999Z,96.13
2023-01-02T22:32:33.815Z,95.63
2023-01-02T22:35:03.550Z,95.68
2023-01-02T22:37:32.943Z,95.88
2023-01-02T22:40:02.058Z,94.80
2023-01-02T22:43:00.503Z,94.48
2023-01-02T22:45:34.172Z,93.93
2023-01-02T22:48:07.180Z,93.50
2023-01-02T22:50:43.514Z,93.28
2023-01-02T22:53:20.111Z,93.21
2023-01-02T22:55:48.309Z,92.67
2023-01-02T22:58:16.259Z,92.85
2023-01-02T23:00:44.271Z,92.82
2023-01-02T23:03:14.175Z,92.11
2023-01-02T23:05:42.486Z,92.67
2023-01-02T23:08:10.661Z,92.50
2023-01-02T23:10:40.271Z,92.35
2023-01-02T23:13:08.132Z,91.58
2023-01-02T23:15:35.945Z,91.17
2023-01-02T23:18:21.309Z,90.67
2023-01-02T23:20:49.521Z,90.83
2023-01-02T23:23:17.380Z,90.44
2023-01-02T23:25:46.635Z,90.19
2023-01-02T23:28:39.236Z,89.98
2023-01-02T23:31:04.132Z,90.02
2023-01-02T23:33:32.041Z,90.42
2023-01-02T23:36:00.455Z,89.39
2023-01-02T23:38:28.485Z,89.80
2023-01-02T23:40:57.745Z,89.23
2023-01-02T23:43:25.635Z,89.41
2023-01-02T23:45:53.646Z,88.71
2023-01-02T23:48:21.882Z,88.84
2023-01-02T23:50:57.496Z,88.65
2023-01-02T23:53:25.775Z,88.89
2023-01-02T23:55:53.719Z,89.74
2023-01-02T23:58:23.777Z,89.57
